Archival Weather

NSFA McMurdo Sound

NSFA McMurdo Sound, Antarctica (NZCM)

Report from: Saturday, February 24, 2024 10:55 AM UTC
Current time: Wednesday, April 24, 2024 7:45 PM UTC

Current weather – Weather history – Daily summaries
Weather forecast

Temperature-15.5°C (4.1°F)
Wind chill-23.4°C (-10.2°F)
Dew point-30.3°C (-22.5°F)
Winds 8 kts (4.1 m/s, 9.2 mph) East-Northeast (70°)
Visibility6.2 mi. (10 km)
Clouds Ceiling: Broken clouds 12,000 ft. (3,658 m)
Altimeter29.17 in.Hg (988 mB)
Relative humidity27 %
Density altitude-6,382 ft. (-1,945 m)
Sea-level pressure108.9 kPa (1089 mB, 32.14 in.Hg)
Remarks Fully automated report
Automated weather observing station with precipitation discriminator
Flight conditions Visual Meteorological Conditions
Raw dataNZCM 241055Z AUTO 07008KT 9999 BKN120 M16/M30 A2917 RMK AO2 SLP885 T11551303
An error has occurred. This application may no longer respond until reloaded. Reload 🗙